LiveATC.Net - Listen to live air traffic control over the Internet! Contact LiveATC.net for advertising information


ICAO: PHTO  IATA: ITO   Airport: Hilo International Airport
City: Hilo   State/Province: Hawaii
Country: United States   Continent: North America
PHTO METAR Weather: PHTO 290353Z 10006KT 10SM CLR 27/22 A3002 RMK AO2 SLP163 T02670217
PHTO Flight Activity (FlightAware)
PHTO Airport Info   (AirNav) (iFlightPlanner)
PHTO Gnd/Twr/App
Feed Status: DOWN
Last heard on: 2014-07-27 04:00:03 (2 days 0 hours 40 minutes ago)
PHTO Gnd/Twr/App Audio Archives
FacilityFrequency
Hilo Approach119.700
Hilo Ground121.900
Hilo Tower118.100


NOTICE

Unauthorized use prohibited. See LiveATC.net Terms of Service


Find LiveATC Audio Streams


Airport/ARTCC Code

Frequency
(e.g., 124.400, 128.75)
Site-wide search

Browse LiveATC Feeds
LiveATC Coverage Map
Top 50 LiveATC Feeds
Bad Weather Areas

LiveATC FAQ
Offer a LiveATC Feed
Contact LiveATC.net
Press Inquiries

LiveATC on iPhone
LiveATC on Android

LiveATC Mobile
(Mobile browser)

ATC Audio Archives
Interesting Recordings

LiveATC Forums


Home Page
About LiveATC.net
Make a Donation
LiveATC Bookstore

Terms of Use
Privacy Policy

ATC/Radar Sites
U.S. ARTCC Freqs
Canadian Air Freqs

AIRMETs/SIGMETs

FAA Airport Status
Nat'l Airspace Status
Arrival Demand Charts


Server Software By:
Icecast.org
Liquidsoap

Please make a donation to help us keep growing!